APL Coral — WDF6832 — position and weather

sailwx.info

Track history (hours):
 
Tides and Currents Weather Stations Pressure Air Temp Water Temp Dewpoint Dewpoint Depression Visibility Wind Speed Wind Dir Waves Ship Positions

APL Coral

Owner: APL Maritime Ltd., Bethesda, MD. More information available from US FCC via Universal Licensing System and Coast Guard Vessel Documentation Center.

Last reported at 2016-Feb-06 13:20 UTC. Time now 2016-Feb-06 15:18 UTC.
Position N 29°46' E 122°37'.

Length 275 m; draft 11.6 m.

Type: Cargo ship. MMSI: 367478280.

Date/timePositionNaut miles runAvg speedWind from/ knotsBaromVisibWave heightAir tempDewpointWater temp
2016-Feb-06 13:20N 29°46' E 122°37'0 0.0
2016-Feb-06 09:27N 29°46' E 122°37'0 0.1
2016-Feb-06 08:31N 29°46' E 122°37'0 0.0
2016-Feb-06 07:33N 29°46' E 122°37'0 0.0
2016-Feb-06 06:33N 29°46' E 122°37'0 0.0
2016-Feb-06 05:32N 29°46' E 122°37'0 0.0
2016-Feb-06 04:33N 29°46' E 122°37'0 0.0
2016-Feb-06 03:32N 29°46' E 122°37'0 0.1
2016-Feb-06 02:33N 29°46' E 122°37'0 0.0
2016-Feb-06 01:33N 29°46' E 122°37'0 0.0
2016-Feb-06 00:30N 29°46' E 122°37'0 0.1
2016-Feb-05 23:30N 29°46' E 122°37'0 0.1
2016-Feb-05 22:28N 29°46' E 122°37'0 0.0
2016-Feb-05 21:33N 29°46' E 122°37'0 0.1
2016-Feb-05 20:33N 29°46' E 122°37'0 0.0
2016-Feb-05 19:32N 29°46' E 122°37'0 0.0
2016-Feb-05 18:33N 29°46' E 122°37'0 0.0
2016-Feb-05 17:33N 29°46' E 122°37'0 0.0
2016-Feb-05 16:31N 29°46' E 122°37'0 0.1
2016-Feb-05 15:31N 29°46' E 122°37'0 0.0
2016-Feb-05 14:30N 29°46' E 122°37'0 0.0
2016-Feb-05 13:32N 29°46' E 122°37'0 0.1
2016-Feb-05 12:33N 29°46' E 122°37'0 0.3
2016-Feb-05 11:30N 29°46' E 122°37'9 9.4
2016-Feb-05 10:32N 29°53' E 122°44'3916.3
2016-Feb-05 08:09N 30°29' E 122°60'1118.3
2016-Feb-05 07:33N 30°40' E 122°58'6014.5
2016-Feb-05 03:25N 31°15' E 122°01'1213.0
2016-Feb-05 02:32N 31°17' E 121°48'1111.4
2016-Feb-05 01:33N 31°22' E 121°36'2 1.6
2016-Feb-05 00:34N 31°23' E 121°34'0 0.0
2016-Feb-04 23:31N 31°23' E 121°34'0 0.0
2016-Feb-04 22:31N 31°23' E 121°34'0 0.0
2016-Feb-04 21:13N 31°23' E 121°34'0 0.0
2016-Feb-04 20:28N 31°23' E 121°34'0 0.0
2016-Feb-04 19:28N 31°23' E 121°34'0 0.0
2016-Feb-04 18:28N 31°23' E 121°34'0 0.0
2016-Feb-04 17:28N 31°23' E 121°34'0 0.0
2016-Feb-04 16:28N 31°23' E 121°34'0 0.0
2016-Feb-04 15:28N 31°23' E 121°34'0 0.0
2016-Feb-04 14:16N 31°23' E 121°34'1 0.8
2016-Feb-04 13:34N 31°23' E 121°34'7 6.7
2016-Feb-04 12:33N 31°20' E 121°41'10 9.7
2016-Feb-04 11:28N 31°16' E 121°53'8 8.9
2016-Feb-04 10:33N 31°14' E 122°02'  
2016-Jan-29 06:00N 32°54' E 123°30'7312.1 010 / 251021.0 5.4 2.5 7.0 4.712.0
2016-Jan-29 00:00N 31°48' E 124°06'   020 / 81019.0 2.2 11.0 9.011.0
Track history (hours):
 
Tides and Currents Weather Stations Pressure Air Temp Water Temp Dewpoint Dewpoint Depression Visibility Wind Speed Wind Dir Waves Ship Positions

APL Coral

Owner: APL Maritime Ltd., Bethesda, MD. More information available from US FCC via Universal Licensing System and Coast Guard Vessel Documentation Center.

Last reported at 2016-Feb-06 13:20 UTC. Time now 2016-Feb-06 15:18 UTC.
Position N 29°46' E 122°37'.

Length 275 m; draft 11.6 m.

Type: Cargo ship. MMSI: 367478280.

Date/timePositionNaut miles runAvg speedWind from/ knotsBaromVisibWave heightAir tempDewpointWater temp
2016-Feb-06 13:20N 29°46' E 122°37'0 0.0
2016-Feb-06 09:27N 29°46' E 122°37'0 0.1
2016-Feb-06 08:31N 29°46' E 122°37'0 0.0
2016-Feb-06 07:33N 29°46' E 122°37'0 0.0
2016-Feb-06 06:33N 29°46' E 122°37'0 0.0
2016-Feb-06 05:32N 29°46' E 122°37'0 0.0
2016-Feb-06 04:33N 29°46' E 122°37'0 0.0
2016-Feb-06 03:32N 29°46' E 122°37'0 0.1
2016-Feb-06 02:33N 29°46' E 122°37'0 0.0
2016-Feb-06 01:33N 29°46' E 122°37'0 0.0
2016-Feb-06 00:30N 29°46' E 122°37'0 0.1
2016-Feb-05 23:30N 29°46' E 122°37'0 0.1
2016-Feb-05 22:28N 29°46' E 122°37'0 0.0
2016-Feb-05 21:33N 29°46' E 122°37'0 0.1
2016-Feb-05 20:33N 29°46' E 122°37'0 0.0
2016-Feb-05 19:32N 29°46' E 122°37'0 0.0
2016-Feb-05 18:33N 29°46' E 122°37'0 0.0
2016-Feb-05 17:33N 29°46' E 122°37'0 0.0
2016-Feb-05 16:31N 29°46' E 122°37'0 0.1
2016-Feb-05 15:31N 29°46' E 122°37'0 0.0
2016-Feb-05 14:30N 29°46' E 122°37'0 0.0
2016-Feb-05 13:32N 29°46' E 122°37'0 0.1
2016-Feb-05 12:33N 29°46' E 122°37'0 0.3
2016-Feb-05 11:30N 29°46' E 122°37'9 9.4
2016-Feb-05 10:32N 29°53' E 122°44'3916.3
2016-Feb-05 08:09N 30°29' E 122°60'1118.3
2016-Feb-05 07:33N 30°40' E 122°58'6014.5
2016-Feb-05 03:25N 31°15' E 122°01'1213.0
2016-Feb-05 02:32N 31°17' E 121°48'1111.4
2016-Feb-05 01:33N 31°22' E 121°36'2 1.6
2016-Feb-05 00:34N 31°23' E 121°34'0 0.0
2016-Feb-04 23:31N 31°23' E 121°34'0 0.0
2016-Feb-04 22:31N 31°23' E 121°34'0 0.0
2016-Feb-04 21:13N 31°23' E 121°34'0 0.0
2016-Feb-04 20:28N 31°23' E 121°34'0 0.0
2016-Feb-04 19:28N 31°23' E 121°34'0 0.0
2016-Feb-04 18:28N 31°23' E 121°34'0 0.0
2016-Feb-04 17:28N 31°23' E 121°34'0 0.0
2016-Feb-04 16:28N 31°23' E 121°34'0 0.0
2016-Feb-04 15:28N 31°23' E 121°34'0 0.0
2016-Feb-04 14:16N 31°23' E 121°34'1 0.8
2016-Feb-04 13:34N 31°23' E 121°34'7 6.7
2016-Feb-04 12:33N 31°20' E 121°41'10 9.7
2016-Feb-04 11:28N 31°16' E 121°53'8 8.9
2016-Feb-04 10:33N 31°14' E 122°02'  
2016-Jan-29 06:00N 32°54' E 123°30'7312.1 010 / 251021.0 5.4 2.5 7.0 4.712.0
2016-Jan-29 00:00N 31°48' E 124°06'   020 / 81019.0 2.2 11.0 9.011.0

Dump ship's entire track history